Time;durP1;ratioP1;P1;durP2;ratioP2;P2;SDS_P1;SDS_P2;PMS_P1;PMS_P2;Temp;Humidity;BMP_temperature;BMP_pressure;BME280_temperature;BME280_humidity;BME280_pressure;Samples;Min_cycle;Max_cycle;Signal;HPM_P1;HPM_P2
2023/07/12 00:01:15;;;;;;;6.70;1.42;;;23.30;92.60;;;;;;4248532;27;20556;-53
2023/07/12 00:03:17;;;;;;;4.78;1.50;;;23.30;92.50;;;;;;4248507;27;20051;-53
2023/07/12 00:05:21;;;;;;;3.75;1.80;;;23.30;92.20;;;;;;4248377;27;20053;-53
2023/07/12 00:07:23;;;;;;;4.18;1.42;;;23.40;92.30;;;;;;4248609;27;20096;-52
2023/07/12 00:09:25;;;;;;;2.40;1.70;;;23.40;92.20;;;;;;4246095;27;20041;-52
2023/07/12 00:11:27;;;;;;;5.10;2.10;;;23.30;92.20;;;;;;4248727;27;20067;-52
2023/07/12 00:13:29;;;;;;;4.68;1.80;;;23.30;92.20;;;;;;4248492;27;20047;-52
2023/07/12 00:15:34;;;;;;;6.22;1.88;;;23.30;92.20;;;;;;4248522;27;20463;-53
2023/07/12 00:17:38;;;;;;;4.38;1.42;;;23.30;92.30;;;;;;4248273;27;20085;-52
2023/07/12 00:19:40;;;;;;;4.10;1.42;;;23.30;92.50;;;;;;4247317;27;20043;-52
2023/07/12 00:21:42;;;;;;;3.63;1.70;;;23.20;92.40;;;;;;4230230;28;20059;-52
2023/07/12 00:23:44;;;;;;;3.80;1.70;;;23.30;92.30;;;;;;4247779;27;20035;-53
2023/07/12 00:25:48;;;;;;;2.92;1.40;;;23.30;92.30;;;;;;4247901;27;20082;-52
2023/07/12 00:27:50;;;;;;;5.05;2.03;;;23.30;92.30;;;;;;4248561;27;20382;-52
2023/07/12 00:29:52;;;;;;;6.80;1.90;;;23.30;92.30;;;;;;4247225;27;20043;-53
2023/07/12 00:31:54;;;;;;;3.70;1.70;;;23.40;92.30;;;;;;4248021;27;20066;-52
2023/07/12 00:33:58;;;;;;;5.57;2.20;;;23.30;92.30;;;;;;4248106;27;20192;-52
2023/07/12 00:36:00;;;;;;;5.90;1.67;;;23.30;92.30;;;;;;4248099;27;20059;-53
2023/07/12 00:38:02;;;;;;;5.65;2.05;;;23.40;92.20;;;;;;4247709;27;20164;-52
2023/07/12 00:40:25;;;;;;;4.03;1.63;;;23.40;92.20;;;;;;4228631;28;20097;-52
2023/07/12 00:42:33;;;;;;;7.70;1.83;;;23.40;92.40;;;;;;4247865;27;20050;-50
2023/07/12 00:44:42;;;;;;;4.25;1.73;;;23.30;92.30;;;;;;4247991;27;20046;-50
2023/07/12 00:46:47;;;;;;;4.97;1.80;;;23.30;92.30;;;;;;4248039;27;20047;-53
2023/07/12 00:48:50;;;;;;;5.03;1.70;;;23.30;92.30;;;;;;4247060;27;20122;-50
2023/07/12 00:50:53;;;;;;;4.82;1.70;;;23.30;92.20;;;;;;4247557;27;20471;-50
2023/07/12 00:52:55;;;;;;;4.45;1.52;;;23.40;92.20;;;;;;4247647;27;20047;-50
2023/07/12 00:55:01;;;;;;;2.90;1.33;;;23.40;92.30;;;;;;4247701;27;20073;-52
2023/07/12 00:57:04;;;;;;;4.10;1.35;;;23.40;92.30;;;;;;4247802;27;20419;-50
2023/07/12 00:59:10;;;;;;;4.65;1.67;;;23.40;92.30;;;;;;4246715;27;20047;-52
2023/07/12 01:01:13;;;;;;;3.58;1.27;;;23.30;92.20;;;;;;4247482;27;20043;-52
2023/07/12 01:03:17;;;;;;;2.15;1.30;;;23.40;92.20;;;;;;4247974;27;20071;-51
2023/07/12 01:05:20;;;;;;;2.97;1.70;;;23.40;92.20;;;;;;4247852;27;20466;-50
2023/07/12 01:07:25;;;;;;;4.57;1.42;;;23.40;92.40;;;;;;4247562;27;20121;-51
2023/07/12 01:09:28;;;;;;;3.50;1.23;;;23.50;92.20;;;;;;4246704;27;20337;-53
2023/07/12 01:11:30;;;;;;;4.10;1.70;;;23.40;92.20;;;;;;4247951;27;20046;-53
2023/07/12 01:13:34;;;;;;;4.15;1.60;;;23.50;92.10;;;;;;4248001;27;20058;-53
2023/07/12 01:15:36;;;;;;;5.90;1.50;;;23.40;92.30;;;;;;4247712;27;20071;-53
2023/07/12 01:17:38;;;;;;;2.92;1.30;;;23.40;92.30;;;;;;4247769;28;20451;-50
2023/07/12 01:19:41;;;;;;;4.65;1.73;;;23.40;92.40;;;;;;4246686;28;20185;-51
2023/07/12 01:21:46;;;;;;;2.95;1.40;;;23.30;92.50;;;;;;4246887;27;20072;-50
2023/07/12 01:23:49;;;;;;;3.53;1.20;;;23.20;92.50;;;;;;4247887;28;20529;-51
2023/07/12 01:26:17;;;;;;;3.45;1.42;;;23.10;92.50;;;;;;4247333;28;20055;-50
2023/07/12 01:28:19;;;;;;;2.25;1.42;;;23.20;92.40;;;;;;4247600;28;20081;-51
2023/07/12 01:30:21;;;;;;;8.40;1.52;;;23.10;92.40;;;;;;4246535;28;20051;-52
2023/07/12 01:32:24;;;;;;;4.47;1.55;;;23.20;92.40;;;;;;4247480;28;20043;-52
2023/07/12 01:34:26;;;;;;;4.90;1.63;;;23.00;92.40;;;;;;4247405;28;20115;-52
2023/07/12 01:36:31;;;;;;;5.30;1.50;;;23.00;92.50;;;;;;4247070;28;20124;-53
2023/07/12 01:38:34;;;;;;;4.78;1.27;;;22.90;92.60;;;;;;4247972;27;20051;-54
2023/07/12 01:40:36;;;;;;;3.30;1.50;;;22.80;92.70;;;;;;4247569;27;20114;-53
2023/07/12 01:42:38;;;;;;;4.82;1.67;;;22.80;92.70;;;;;;4248508;28;20088;-54
2023/07/12 01:44:40;;;;;;;4.07;1.77;;;22.70;92.70;;;;;;4247393;28;20073;-52
2023/07/12 01:46:42;;;;;;;2.90;1.40;;;22.70;92.80;;;;;;4247450;28;20077;-50
2023/07/12 01:48:45;;;;;;;2.05;1.33;;;22.70;92.80;;;;;;4247326;27;20486;-50
2023/07/12 01:50:47;;;;;;;5.28;1.70;;;22.70;92.80;;;;;;4246070;28;20054;-50
2023/07/12 01:52:49;;;;;;;3.55;1.70;;;22.70;92.80;;;;;;4247373;28;20153;-50
2023/07/12 01:54:53;;;;;;;5.90;1.77;;;22.70;92.90;;;;;;4247050;28;20469;-49
2023/07/12 01:56:55;;;;;;;1.15;1.00;;;22.50;93.00;;;;;;4228977;28;20047;-50
2023/07/12 01:58:57;;;;;;;2.95;1.05;;;22.60;92.70;;;;;;4246695;28;20469;-50
2023/07/12 02:01:00;;;;;;;3.22;0.90;;;22.50;92.60;;;;;;4246626;28;20146;-50
2023/07/12 02:03:02;;;;;;;3.15;1.40;;;22.60;92.60;;;;;;4247315;28;20425;-50
2023/07/12 02:05:06;;;;;;;1.63;0.80;;;22.60;92.50;;;;;;4246642;28;20039;-49
2023/07/12 02:07:08;;;;;;;1.57;0.90;;;22.60;92.30;;;;;;4247094;28;20063;-50
2023/07/12 02:09:10;;;;;;;1.58;0.82;;;22.60;92.40;;;;;;4246058;28;20043;-50
2023/07/12 02:11:14;;;;;;;1.63;0.82;;;22.50;92.40;;;;;;4246857;28;20043;-51
2023/07/12 02:13:16;;;;;;;2.13;0.98;;;22.50;92.40;;;;;;4246967;28;20049;-50
2023/07/12 02:15:19;;;;;;;2.08;1.05;;;22.40;92.50;;;;;;4228881;28;20044;-52
2023/07/12 02:17:21;;;;;;;3.20;1.20;;;22.50;92.60;;;;;;4247307;28;20122;-52
2023/07/12 02:19:24;;;;;;;2.25;0.82;;;22.50;92.70;;;;;;4245763;28;20043;-52
2023/07/12 02:21:25;;;;;;;2.55;1.10;;;22.40;93.00;;;;;;4246958;28;20490;-50
2023/07/12 02:23:28;;;;;;;2.35;0.80;;;22.40;92.80;;;;;;4246793;27;20077;-52
2023/07/12 02:25:35;;;;;;;2.25;1.00;;;22.40;92.70;;;;;;4246675;28;20052;-52
2023/07/12 02:27:39;;;;;;;1.23;0.57;;;22.30;92.90;;;;;;4247112;27;20126;-52
2023/07/12 02:29:41;;;;;;;2.67;0.90;;;22.30;92.60;;;;;;4246316;28;20066;-52
2023/07/12 02:31:43;;;;;;;1.73;0.90;;;22.20;92.60;;;;;;4246836;27;20062;-52
2023/07/12 02:33:45;;;;;;;1.33;0.75;;;22.20;92.60;;;;;;4248951;27;20047;-52
2023/07/12 02:35:50;;;;;;;2.42;0.95;;;22.20;92.70;;;;;;4249860;27;20134;-51
2023/07/12 02:37:52;;;;;;;1.30;0.60;;;22.20;92.60;;;;;;4250120;27;20082;-52
2023/07/12 02:39:54;;;;;;;1.95;0.70;;;22.20;92.60;;;;;;4249124;27;20527;-52
2023/07/12 02:41:56;;;;;;;1.45;0.70;;;22.10;92.80;;;;;;4250236;27;20108;-52
2023/07/12 02:44:00;;;;;;;2.15;0.57;;;22.10;92.80;;;;;;4249993;27;20057;-52
2023/07/12 02:46:03;;;;;;;0.82;0.45;;;22.00;92.70;;;;;;4249681;27;20527;-52
2023/07/12 02:48:10;;;;;;;0.98;0.63;;;22.00;92.40;;;;;;4249295;27;20053;-53
2023/07/12 02:50:12;;;;;;;2.47;0.60;;;22.00;92.40;;;;;;4248670;27;20067;-52
2023/07/12 02:52:14;;;;;;;1.30;0.80;;;21.90;92.50;;;;;;4249761;27;20093;-52
2023/07/12 02:54:16;;;;;;;6.68;0.95;;;21.80;92.70;;;;;;4249790;27;20047;-52
2023/07/12 02:56:18;;;;;;;1.60;0.70;;;21.80;92.80;;;;;;4249555;27;20123;-53
2023/07/12 02:58:20;;;;;;;2.38;0.90;;;21.90;92.80;;;;;;4249593;27;20158;-52
2023/07/12 03:00:24;;;;;;;2.15;0.93;;;21.70;92.90;;;;;;4248518;27;20057;-51
2023/07/12 03:02:26;;;;;;;2.42;0.70;;;21.70;93.10;;;;;;4249204;27;20054;-53
2023/07/12 03:04:28;;;;;;;2.67;1.00;;;21.70;93.00;;;;;;4249447;27;20157;-52
2023/07/12 03:06:30;;;;;;;1.90;0.98;;;21.70;93.00;;;;;;4249613;27;20079;-52
2023/07/12 03:08:32;;;;;;;1.95;0.90;;;21.70;93.10;;;;;;4249565;27;20118;-50
2023/07/12 03:10:39;;;;;;;2.40;0.85;;;21.60;93.20;;;;;;4248589;27;20070;-50
2023/07/12 03:12:41;;;;;;;2.55;1.02;;;21.60;92.80;;;;;;4249370;27;20047;-52
2023/07/12 03:14:43;;;;;;;3.20;1.13;;;21.50;92.90;;;;;;4231070;28;20048;-52
2023/07/12 03:16:47;;;;;;;2.72;1.30;;;21.60;92.90;;;;;;4248970;27;20554;-54
2023/07/12 03:18:51;;;;;;;1.83;1.00;;;21.50;93.00;;;;;;4249238;27;20057;-52
2023/07/12 03:20:59;;;;;;;3.92;1.00;;;21.40;92.90;;;;;;4248174;27;20040;-52
2023/07/12 03:23:01;;;;;;;2.17;0.95;;;21.50;93.10;;;;;;4249412;27;20047;-52
2023/07/12 03:25:03;;;;;;;3.20;1.27;;;21.50;92.90;;;;;;4249004;27;20055;-51
2023/07/12 03:27:06;;;;;;;3.03;1.30;;;21.50;92.70;;;;;;4249188;27;20082;-54
2023/07/12 03:29:08;;;;;;;4.55;1.33;;;21.40;92.70;;;;;;4249013;27;20054;-54
2023/07/12 03:31:13;;;;;;;5.47;1.48;;;21.40;92.40;;;;;;4247761;27;20074;-54
2023/07/12 03:33:16;;;;;;;;;;;21.30;92.30;;;;;;4249632;27;20043;-54
2023/07/12 03:35:18;;;;;;;6.90;1.77;;;21.20;92.00;;;;;;4249060;27;19923;-51
2023/07/12 03:37:20;;;;;;;7.32;1.95;;;21.00;92.10;;;;;;4248927;27;20070;-53
2023/07/12 03:39:22;;;;;;;5.85;2.15;;;21.00;92.20;;;;;;4248165;27;20057;-53
2023/07/12 03:41:24;;;;;;;5.97;1.80;;;20.90;92.40;;;;;;4248866;27;20130;-50
2023/07/12 03:43:26;;;;;;;8.85;1.60;;;20.90;92.40;;;;;;4248387;27;20043;-51
2023/07/12 03:45:29;;;;;;;6.15;1.77;;;20.80;92.30;;;;;;4248621;27;20074;-53
2023/07/12 03:47:31;;;;;;;5.00;1.80;;;20.80;92.20;;;;;;4248710;27;20132;-53
2023/07/12 03:49:34;;;;;;;8.52;2.00;;;20.80;92.20;;;;;;4247820;27;20043;-52
2023/07/12 03:51:36;;;;;;;5.32;1.58;;;20.80;92.10;;;;;;4248471;27;20043;-53
2023/07/12 03:53:39;;;;;;;7.32;1.75;;;20.70;92.00;;;;;;4248636;27;20051;-52
2023/07/12 03:55:43;;;;;;;7.43;2.25;;;20.70;92.00;;;;;;4248533;27;20051;-53
2023/07/12 03:57:45;;;;;;;3.53;1.20;;;20.70;92.20;;;;;;4248588;27;20043;-53
2023/07/12 03:59:47;;;;;;;7.80;2.08;;;20.70;92.30;;;;;;4247870;27;20050;-53
2023/07/12 04:01:49;;;;;;;5.32;1.90;;;20.60;92.20;;;;;;4248173;27;20043;-53
2023/07/12 04:03:51;;;;;;;7.10;2.00;;;20.70;92.30;;;;;;4248474;27;20095;-53
2023/07/12 04:05:55;;;;;;;5.55;1.52;;;20.70;92.10;;;;;;4248365;27;20051;-53
2023/07/12 04:07:57;;;;;;;10.10;2.28;;;20.60;92.10;;;;;;4248308;27;20126;-53
2023/07/12 04:10:01;;;;;;;5.28;1.80;;;20.60;92.10;;;;;;4247494;27;20070;-53
2023/07/12 04:12:04;;;;;;;10.02;2.00;;;20.60;92.20;;;;;;4248431;27;20096;-53
2023/07/12 04:14:06;;;;;;;6.68;2.30;;;20.50;92.10;;;;;;4248180;27;20039;-52
2023/07/12 04:16:08;;;;;;;8.55;2.30;;;20.40;92.00;;;;;;4248015;27;20463;-52
2023/07/12 04:18:11;;;;;;;9.25;1.98;;;20.50;92.30;;;;;;4248565;27;20047;-52
2023/07/12 04:20:13;;;;;;;6.63;1.95;;;20.40;92.30;;;;;;4247456;27;20116;-51
2023/07/12 04:22:16;;;;;;;7.15;1.92;;;20.40;92.30;;;;;;4248488;27;20500;-52
2023/07/12 04:24:19;;;;;;;5.25;2.00;;;20.40;92.20;;;;;;4248152;27;20436;-53
2023/07/12 04:26:21;;;;;;;7.45;1.92;;;20.40;92.30;;;;;;4248082;27;20047;-51
2023/07/12 04:28:25;;;;;;;5.90;1.75;;;20.30;92.20;;;;;;4248235;27;20039;-52
2023/07/12 04:30:27;;;;;;;6.07;1.98;;;20.30;92.40;;;;;;4246411;27;20131;-52
2023/07/12 04:32:29;;;;;;;7.20;2.20;;;20.40;92.10;;;;;;4248179;27;20414;-51
2023/07/12 04:34:31;;;;;;;5.60;1.73;;;20.40;92.30;;;;;;4248169;27;20043;-53
2023/07/12 04:36:40;;;;;;;6.82;1.98;;;20.30;92.30;;;;;;4247960;27;20040;-52
2023/07/12 04:38:44;;;;;;;6.10;1.75;;;20.30;92.30;;;;;;4247981;27;20497;-52
2023/07/12 04:40:52;;;;;;;6.50;1.98;;;20.30;92.20;;;;;;4228742;28;20036;-52
2023/07/12 04:42:54;;;;;;;6.47;2.40;;;20.30;92.20;;;;;;4248773;27;20062;-53
2023/07/12 04:44:56;;;;;;;6.05;1.98;;;20.40;92.40;;;;;;4248227;27;20464;-60
2023/07/12 04:46:59;;;;;;;5.95;1.85;;;20.40;92.30;;;;;;4248450;27;20508;-53
2023/07/12 04:49:01;;;;;;;6.43;1.50;;;20.30;92.00;;;;;;4248041;27;20046;-52
2023/07/12 04:51:03;;;;;;;5.68;1.98;;;20.30;92.00;;;;;;4246700;27;20101;-53
2023/07/12 04:53:06;;;;;;;8.77;1.65;;;20.30;92.30;;;;;;4229748;28;20471;-53
2023/07/12 04:55:21;;;;;;;6.82;2.10;;;20.30;92.40;;;;;;4247186;27;20056;-52
2023/07/12 04:57:24;;;;;;;7.55;2.05;;;20.20;92.20;;;;;;4247720;27;20490;-53
2023/07/12 04:59:26;;;;;;;7.32;1.90;;;20.10;92.40;;;;;;4247097;27;20078;-53
2023/07/12 05:01:29;;;;;;;4.18;1.42;;;20.10;92.50;;;;;;4246844;27;20104;-53
2023/07/12 05:03:32;;;;;;;5.93;1.52;;;20.00;92.60;;;;;;4247690;27;20043;-52
2023/07/12 05:05:34;;;;;;;6.88;1.55;;;20.10;92.60;;;;;;4248002;27;20436;-52
2023/07/12 05:07:36;;;;;;;8.52;1.83;;;20.10;92.80;;;;;;4247461;27;20049;-53
2023/07/12 05:09:38;;;;;;;11.60;2.75;;;20.10;92.60;;;;;;4246728;27;20049;-53
2023/07/12 05:11:41;;;;;;;8.07;1.85;;;20.10;92.40;;;;;;4247621;27;20051;-53
2023/07/12 05:13:44;;;;;;;6.90;1.55;;;20.10;92.80;;;;;;4228951;28;20047;-52
2023/07/12 05:15:50;;;;;;;6.47;2.05;;;20.00;92.60;;;;;;4247851;27;20058;-52
2023/07/12 05:17:52;;;;;;;7.50;2.00;;;20.10;92.70;;;;;;4247587;27;20461;-53
2023/07/12 05:19:54;;;;;;;6.35;1.98;;;20.10;92.40;;;;;;4246485;28;20043;-52
2023/07/12 05:21:57;;;;;;;7.43;1.73;;;20.20;92.20;;;;;;4229132;28;20048;-52
2023/07/12 05:23:59;;;;;;;9.00;2.13;;;20.10;92.30;;;;;;4247679;28;20043;-53
2023/07/12 05:26:01;;;;;;;6.43;1.50;;;20.20;92.00;;;;;;4247124;28;20047;-51
2023/07/12 05:28:05;;;;;;;8.07;2.08;;;20.30;91.80;;;;;;4247140;28;20050;-51
2023/07/12 05:30:08;;;;;;;6.97;1.95;;;20.30;91.60;;;;;;4228531;28;20130;-52
2023/07/12 05:32:10;;;;;;;10.10;2.28;;;20.30;91.70;;;;;;4247198;28;20413;-52
2023/07/12 05:34:12;;;;;;;7.90;1.95;;;20.20;91.40;;;;;;4247375;28;20122;-52
2023/07/12 05:36:15;;;;;;;7.22;2.00;;;20.10;91.40;;;;;;4247384;28;20043;-51
2023/07/12 05:38:17;;;;;;;6.05;1.55;;;20.20;91.50;;;;;;4247523;28;20043;-51
2023/07/12 05:40:20;;;;;;;7.18;2.20;;;20.20;91.40;;;;;;4246616;28;20047;-51
2023/07/12 05:42:22;;;;;;;7.28;2.08;;;20.10;91.30;;;;;;4247010;28;20072;-51
2023/07/12 05:44:25;;;;;;;9.63;2.10;;;20.20;91.20;;;;;;4247489;28;20050;-52
2023/07/12 05:46:27;;;;;;;6.03;1.70;;;20.10;91.20;;;;;;4247368;28;20053;-52
2023/07/12 05:48:29;;;;;;;3.78;1.50;;;20.00;91.40;;;;;;4247424;28;20047;-52
2023/07/12 05:50:32;;;;;;;6.38;1.83;;;20.10;91.40;;;;;;4246311;28;20126;-52
2023/07/12 05:52:33;;;;;;;9.35;2.25;;;20.10;91.50;;;;;;4247427;28;20047;-52
2023/07/12 05:54:37;;;;;;;7.13;2.13;;;20.10;91.70;;;;;;4247258;28;20051;-51
2023/07/12 05:56:39;;;;;;;6.68;1.70;;;20.10;91.50;;;;;;4247088;28;20047;-52
2023/07/12 05:58:41;;;;;;;4.65;1.65;;;20.30;91.20;;;;;;4247076;28;20075;-53
2023/07/12 06:00:45;;;;;;;5.28;1.70;;;20.30;91.30;;;;;;4246286;28;20078;-53
2023/07/12 06:02:47;;;;;;;6.70;1.58;;;20.30;91.30;;;;;;4247246;28;20043;-52
2023/07/12 06:04:49;;;;;;;5.45;1.55;;;20.30;91.00;;;;;;4247106;28;20050;-52
2023/07/12 06:06:52;;;;;;;5.70;1.88;;;20.30;91.10;;;;;;4248030;27;20039;-52
2023/07/12 06:08:55;;;;;;;6.25;1.48;;;20.30;91.10;;;;;;4232395;28;20495;-50
2023/07/12 06:10:57;;;;;;;7.97;1.60;;;20.40;91.20;;;;;;4249178;27;20044;-50
2023/07/12 06:12:59;;;;;;;5.07;1.35;;;20.50;91.00;;;;;;4250568;27;20042;-50
2023/07/12 06:15:01;;;;;;;11.63;2.53;;;20.70;90.90;;;;;;4250484;27;20054;-50
2023/07/12 06:17:05;;;;;;;9.52;1.80;;;20.80;90.80;;;;;;4250247;27;20043;-48
2023/07/12 06:19:08;;;;;;;4.65;1.48;;;20.80;90.40;;;;;;4250448;27;20043;-50
2023/07/12 06:21:10;;;;;;;9.20;1.98;;;20.90;90.80;;;;;;4249172;27;20053;-50
2023/07/12 06:23:12;;;;;;;7.00;1.50;;;20.90;90.00;;;;;;4250377;27;20067;-50
2023/07/12 06:25:14;;;;;;;7.10;2.10;;;21.00;90.20;;;;;;4249675;27;20402;-50
2023/07/12 06:27:17;;;;;;;6.13;2.05;;;21.00;90.20;;;;;;4250112;27;20046;-50
2023/07/12 06:29:19;;;;;;;11.52;2.35;;;20.90;90.10;;;;;;4250052;27;20047;-50
2023/07/12 06:31:21;;;;;;;5.43;2.38;;;20.80;90.20;;;;;;4248963;27;20126;-51
2023/07/12 06:33:25;;;;;;;5.97;1.90;;;20.90;90.00;;;;;;4250183;27;20049;-50
2023/07/12 06:35:27;;;;;;;9.98;2.10;;;20.80;90.10;;;;;;4250051;27;20414;-51
2023/07/12 06:37:29;;;;;;;12.32;2.10;;;20.90;90.00;;;;;;4249889;27;20046;-50
2023/07/12 06:39:31;;;;;;;7.82;1.80;;;20.90;90.20;;;;;;4249698;27;20058;-53
2023/07/12 06:41:33;;;;;;;13.23;1.65;;;21.00;90.10;;;;;;4249152;27;20044;-53
2023/07/12 06:43:35;;;;;;;11.25;1.60;;;21.10;90.00;;;;;;4249889;27;20043;-53
2023/07/12 06:45:37;;;;;;;13.57;1.90;;;21.20;89.70;;;;;;4250027;27;20047;-52
2023/07/12 06:47:39;;;;;;;7.32;1.52;;;21.20;89.50;;;;;;4249686;27;20075;-52
2023/07/12 06:49:43;;;;;;;12.40;2.13;;;21.20;89.10;;;;;;4249705;27;20466;-52
2023/07/12 06:51:46;;;;;;;5.97;1.63;;;21.10;89.40;;;;;;4248861;27;20054;-50
2023/07/12 06:53:48;;;;;;;7.32;1.85;;;21.30;89.40;;;;;;4249887;27;20054;-51
2023/07/12 06:55:50;;;;;;;6.60;1.73;;;21.30;88.90;;;;;;4249588;27;20086;-50
2023/07/12 06:57:52;;;;;;;10.02;1.75;;;21.30;88.50;;;;;;4249691;27;20054;-52
2023/07/12 06:59:54;;;;;;;7.80;1.70;;;21.30;88.30;;;;;;4249580;27;20049;-52
2023/07/12 07:01:56;;;;;;;6.95;2.05;;;21.30;88.40;;;;;;4249111;27;20216;-52
2023/07/12 07:03:59;;;;;;;7.28;1.73;;;21.20;88.70;;;;;;4249553;27;20134;-51
2023/07/12 07:06:03;;;;;;;9.38;1.63;;;21.10;88.30;;;;;;4249881;27;20039;-51
2023/07/12 07:08:06;;;;;;;6.87;1.57;;;21.10;87.90;;;;;;4249357;27;20046;-52
2023/07/12 07:10:09;;;;;;;5.22;1.45;;;21.30;87.60;;;;;;4248182;27;20048;-51
2023/07/12 07:12:11;;;;;;;5.32;1.35;;;21.50;86.90;;;;;;4249409;27;20364;-51
2023/07/12 07:14:13;;;;;;;7.75;1.63;;;21.40;86.40;;;;;;4249315;27;20076;-49
2023/07/12 07:16:15;;;;;;;6.82;1.63;;;21.60;85.80;;;;;;4249429;27;20047;-49
2023/07/12 07:18:17;;;;;;;3.42;1.27;;;22.00;85.40;;;;;;4248878;27;20456;-51
2023/07/12 07:20:22;;;;;;;6.57;1.30;;;22.40;86.00;;;;;;4248275;27;20557;-51
2023/07/12 07:22:25;;;;;;;8.98;1.83;;;22.30;84.60;;;;;;4249109;27;20066;-52
2023/07/12 07:24:27;;;;;;;4.25;1.40;;;22.30;84.50;;;;;;4248658;27;20491;-52
2023/07/12 07:26:30;;;;;;;10.63;2.65;;;22.20;85.30;;;;;;4249052;27;20047;-52
2023/07/12 07:28:33;;;;;;;7.97;1.70;;;22.20;85.00;;;;;;4249060;27;20543;-52
2023/07/12 07:30:35;;;;;;;7.60;1.73;;;22.30;84.40;;;;;;4248245;27;20126;-52
2023/07/12 07:32:37;;;;;;;12.93;1.55;;;22.10;83.10;;;;;;4249134;27;20201;-50
2023/07/12 07:34:39;;;;;;;4.45;1.45;;;22.00;84.00;;;;;;4249144;27;20047;-49
2023/07/12 07:36:42;;;;;;;6.15;1.15;;;22.20;84.30;;;;;;4249137;27;20134;-50
2023/07/12 07:38:46;;;;;;;4.75;1.35;;;22.50;84.80;;;;;;4248588;27;20410;-49
2023/07/12 07:40:48;;;;;;;8.97;2.00;;;22.60;84.30;;;;;;4248319;27;20043;-50
2023/07/12 07:42:50;;;;;;;6.35;1.73;;;22.60;83.70;;;;;;4248907;27;20411;-53
2023/07/12 07:44:52;;;;;;;7.13;1.90;;;22.60;83.50;;;;;;4249145;27;20118;-52
2023/07/12 07:46:54;;;;;;;7.88;1.80;;;22.50;84.00;;;;;;4248961;27;20051;-52
2023/07/12 07:48:56;;;;;;;6.90;1.73;;;22.30;84.20;;;;;;4248713;27;20043;-52
2023/07/12 07:50:58;;;;;;;5.75;1.50;;;22.50;84.00;;;;;;4248353;27;20123;-53
2023/07/12 07:53:00;;;;;;;3.92;1.42;;;22.80;84.00;;;;;;4249277;27;20563;-53
2023/07/12 07:55:05;;;;;;;5.25;1.55;;;22.80;82.70;;;;;;4231224;28;20040;-56
2023/07/12 07:57:08;;;;;;;6.03;1.30;;;22.90;82.30;;;;;;4248766;27;20039;-53
2023/07/12 07:59:10;;;;;;;5.53;1.73;;;23.00;82.00;;;;;;4248501;27;20055;-53
2023/07/12 08:01:12;;;;;;;12.68;1.45;;;23.20;81.80;;;;;;4247610;27;20039;-50
2023/07/12 08:03:14;;;;;;;6.20;1.58;;;23.00;82.80;;;;;;4248480;27;20043;-50
2023/07/12 08:05:17;;;;;;;2.83;1.20;;;23.00;83.60;;;;;;4248636;27;20072;-50
2023/07/12 08:07:19;;;;;;;6.82;1.05;;;23.20;83.50;;;;;;4247882;27;20633;-51
2023/07/12 08:09:21;;;;;;;5.07;1.52;;;23.20;82.30;;;;;;4241209;27;20043;-53
2023/07/12 08:11:24;;;;;;;5.47;1.30;;;23.20;81.50;;;;;;4237654;27;20518;-53
2023/07/12 08:13:26;;;;;;;4.68;1.48;;;23.30;81.30;;;;;;4230086;28;20550;-52
2023/07/12 08:15:28;;;;;;;4.78;1.25;;;23.40;82.10;;;;;;4248186;27;20039;-53
2023/07/12 08:17:31;;;;;;;6.72;1.52;;;23.40;80.60;;;;;;4241204;27;20418;-55
2023/07/12 08:19:34;;;;;;;5.18;1.23;;;23.40;80.10;;;;;;4231635;27;20055;-53
2023/07/12 08:21:36;;;;;;;4.50;1.33;;;23.30;79.90;;;;;;4245652;27;20043;-53
2023/07/12 08:23:38;;;;;;;4.35;1.13;;;23.40;79.40;;;;;;4247905;27;20081;-51
2023/07/12 08:25:40;;;;;;;3.03;0.90;;;23.50;80.20;;;;;;4247700;27;20053;-51
2023/07/12 08:27:46;;;;;;;5.43;1.10;;;23.60;81.20;;;;;;4244781;27;20043;-50
2023/07/12 08:29:48;;;;;;;6.82;1.83;;;23.70;79.70;;;;;;4226551;28;20040;-50
2023/07/12 08:31:50;;;;;;;4.05;1.40;;;23.80;80.70;;;;;;4224475;28;20050;-50
2023/07/12 08:33:56;;;;;;;4.97;1.35;;;23.90;79.80;;;;;;4244195;27;20478;-51
2023/07/12 08:35:58;;;;;;;6.97;1.25;;;23.80;80.00;;;;;;4247097;27;20046;-51
2023/07/12 08:38:00;;;;;;;5.20;1.63;;;23.90;79.90;;;;;;4246920;27;20406;-51
2023/07/12 08:40:03;;;;;;;8.77;1.45;;;23.90;79.00;;;;;;4246807;27;20067;-52
2023/07/12 08:42:11;;;;;;;9.13;1.50;;;24.00;79.60;;;;;;4245852;27;20113;-52
2023/07/12 08:44:14;;;;;;;5.65;1.30;;;23.90;78.10;;;;;;4246481;27;20078;-50
2023/07/12 08:46:20;;;;;;;8.07;1.30;;;23.70;79.10;;;;;;4246561;27;20043;-51
2023/07/12 08:48:24;;;;;;;6.05;1.48;;;23.70;78.80;;;;;;4228883;27;20589;-50
2023/07/12 08:50:31;;;;;;;12.10;1.50;;;23.80;78.00;;;;;;4245760;27;20050;-51
2023/07/12 08:52:34;;;;;;;7.22;1.17;;;23.60;77.30;;;;;;4244820;27;20049;-50
2023/07/12 08:54:36;;;;;;;14.15;1.50;;;23.40;78.70;;;;;;4247174;27;20508;-52
2023/07/12 08:56:38;;;;;;;6.38;1.40;;;23.50;78.50;;;;;;4246740;27;20401;-53
2023/07/12 08:58:43;;;;;;;7.85;1.70;;;23.50;78.40;;;;;;4246716;27;20460;-52
2023/07/12 09:00:51;;;;;;;7.85;1.45;;;23.60;78.20;;;;;;4245610;27;20047;-51
2023/07/12 09:02:53;;;;;;;8.88;1.52;;;23.60;78.50;;;;;;4244062;27;20043;-52
2023/07/12 09:04:59;;;;;;;6.55;1.35;;;23.90;78.60;;;;;;4245884;27;20051;-52
2023/07/12 09:07:04;;;;;;;13.15;1.55;;;23.90;77.70;;;;;;4246776;27;20061;-52
2023/07/12 09:09:09;;;;;;;10.60;2.05;;;23.90;78.00;;;;;;4246477;27;20435;-51
2023/07/12 09:11:18;;;;;;;8.82;2.05;;;24.00;77.80;;;;;;4245529;27;20078;-56
2023/07/12 09:13:21;;;;;;;9.25;1.52;;;24.20;77.60;;;;;;4240102;27;20164;-52
2023/07/12 09:15:34;;;;;;;7.35;1.80;;;24.20;76.80;;;;;;4242065;27;20162;-53
2023/07/12 09:17:42;;;;;;;9.05;1.50;;;24.10;76.60;;;;;;4235302;27;20402;-52
2023/07/12 09:19:44;;;;;;;3.58;1.13;;;24.00;77.00;;;;;;4238904;28;20070;-52
2023/07/12 09:21:49;;;;;;;4.32;1.42;;;23.90;76.60;;;;;;4245217;28;20092;-53
2023/07/12 09:23:53;;;;;;;6.72;1.30;;;24.00;76.90;;;;;;4242468;28;20051;-51
2023/07/12 09:25:56;;;;;;;8.50;1.88;;;24.10;77.10;;;;;;4242668;28;20043;-51
2023/07/12 09:27:58;;;;;;;8.02;1.83;;;24.40;76.60;;;;;;4240881;28;20535;-52
2023/07/12 09:30:03;;;;;;;5.55;1.17;;;24.60;76.00;;;;;;4243778;28;20050;-51
2023/07/12 09:32:16;;;;;;;6.38;1.00;;;24.70;76.30;;;;;;4239656;28;20043;-52
2023/07/12 09:34:23;;;;;;;4.65;1.30;;;24.50;75.50;;;;;;4241588;28;20039;-53
2023/07/12 09:36:29;;;;;;;10.60;1.67;;;24.40;76.40;;;;;;4239009;28;20036;-53
2023/07/12 09:38:36;;;;;;;5.97;1.25;;;24.40;76.10;;;;;;4242103;28;20565;-53
2023/07/12 09:40:40;;;;;;;8.02;1.30;;;24.30;76.10;;;;;;4240498;28;20126;-51
2023/07/12 09:42:47;;;;;;;10.50;1.30;;;24.50;75.00;;;;;;4244168;27;20039;-50
2023/07/12 09:44:50;;;;;;;3.55;1.20;;;24.60;76.20;;;;;;4244411;27;20131;-54
2023/07/12 09:46:58;;;;;;;5.57;1.10;;;24.70;73.60;;;;;;4244779;27;20114;-51
2023/07/12 09:49:06;;;;;;;4.30;0.90;;;24.80;74.20;;;;;;4246964;27;20138;-51
2023/07/12 09:51:24;;;;;;;6.05;1.05;;;24.50;74.30;;;;;;4245079;27;20065;-51
2023/07/12 09:53:34;;;;;;;2.78;1.00;;;24.50;75.80;;;;;;4247822;27;20113;-51
2023/07/12 09:55:42;;;;;;;6.97;1.92;;;24.40;74.80;;;;;;4244786;27;20039;-53
2023/07/12 09:57:58;;;;;;;3.08;1.08;;;24.40;74.30;;;;;;4244656;27;20089;-51
2023/07/12 10:00:05;;;;;;;4.25;1.10;;;24.40;75.20;;;;;;4242365;27;20052;-53
2023/07/12 10:02:23;;;;;;;3.67;1.42;;;24.40;75.70;;;;;;4243332;27;20032;-53
2023/07/12 10:04:35;;;;;;;6.65;1.60;;;24.40;75.10;;;;;;4233133;28;20371;-53
2023/07/12 10:06:42;;;;;;;4.32;2.00;;;24.80;74.30;;;;;;4240762;27;20035;-50
2023/07/12 10:08:48;;;;;;;5.25;1.48;;;25.10;74.00;;;;;;4238541;27;20080;-50
2023/07/12 10:10:56;;;;;;;5.22;1.20;;;25.30;74.00;;;;;;4243443;27;20418;-52
2023/07/12 10:13:12;;;;;;;9.13;1.50;;;25.10;73.10;;;;;;4242169;27;20047;-52
2023/07/12 10:15:14;;;;;;;3.63;1.08;;;24.90;72.30;;;;;;4247711;27;20039;-50
2023/07/12 10:17:20;;;;;;;6.65;1.30;;;24.60;73.00;;;;;;4242467;27;20047;-50
2023/07/12 10:19:24;;;;;;;7.00;1.40;;;24.50;74.60;;;;;;4249665;27;20078;-50
2023/07/12 10:21:27;;;;;;;4.60;1.42;;;24.50;73.70;;;;;;4248984;27;20050;-50
2023/07/12 10:23:41;;;;;;;2.95;0.90;;;24.50;73.30;;;;;;4250199;27;20047;-53
2023/07/12 10:25:48;;;;;;;3.53;1.00;;;24.50;72.60;;;;;;4249808;27;20085;-53
2023/07/12 10:27:56;;;;;;;3.78;1.15;;;24.80;71.40;;;;;;4231823;28;20051;-49
2023/07/12 10:30:04;;;;;;;2.08;0.80;;;24.90;69.70;;;;;;4250153;27;20047;-50
2023/07/12 10:32:12;;;;;;;5.35;1.02;;;24.80;69.90;;;;;;4248606;27;20075;-53
2023/07/12 10:34:25;;;;;;;4.80;1.05;;;24.70;70.10;;;;;;4231800;27;20044;-52
2023/07/12 10:36:31;;;;;;;4.45;1.20;;;24.90;70.80;;;;;;4249755;27;20054;-52
2023/07/12 10:38:35;;;;;;;3.10;1.00;;;24.80;68.90;;;;;;4249874;27;20051;-50
2023/07/12 10:40:40;;;;;;;4.35;1.17;;;24.70;68.90;;;;;;4249874;27;20388;-56
2023/07/12 10:42:49;;;;;;;3.10;0.98;;;24.80;69.40;;;;;;4247059;27;20122;-51